Time;durP1;ratioP1;P1;durP2;ratioP2;P2;SDS_P1;SDS_P2;PMS_P1;PMS_P2;Temp;Humidity;BMP_temperature;BMP_pressure;BME280_temperature;BME280_humidity;BME280_pressure;Samples;Min_cycle;Max_cycle;Signal;HPM_P1;HPM_P2
2022/08/17 00:02:10;;;;;;;19.80;8.30;;;;;;;20.89;60.66;98482.48;108719;1283;22149;-83
2022/08/17 00:04:52;;;;;;;19.40;8.90;;;;;;;20.96;60.82;98483.33;108753;1283;23140;-85
2022/08/17 00:07:34;;;;;;;14.80;8.60;;;;;;;20.99;60.65;98485.56;108586;1283;22413;-84
2022/08/17 00:10:19;;;;;;;15.60;8.80;;;;;;;20.89;60.72;98488.66;108526;1284;22503;-83
2022/08/17 00:12:58;;;;;;;15.30;8.20;;;;;;;20.85;60.84;98486.79;108699;1283;22528;-84
2022/08/17 00:15:29;;;;;;;15.90;7.90;;;;;;;20.86;60.83;98488.41;108659;1284;22454;-84
2022/08/17 00:18:03;;;;;;;12.10;7.90;;;;;;;20.88;61.07;98482.80;108673;1284;22473;-84
2022/08/17 00:20:39;;;;;;;14.00;7.00;;;;;;;20.93;60.95;98482.36;108708;1283;23029;-84
2022/08/17 00:23:12;;;;;;;11.80;7.00;;;;;;;21.02;60.99;98488.19;108692;1283;22973;-84
2022/08/17 00:25:44;;;;;;;12.20;7.10;;;;;;;21.07;60.82;98483.58;108767;1283;22394;-83
2022/08/17 00:28:14;;;;;;;10.90;6.80;;;;;;;21.14;60.85;98478.60;108684;1283;22480;-84
2022/08/17 00:30:47;;;;;;;11.60;6.70;;;;;;;21.17;60.86;98478.80;108706;1284;22658;-84
2022/08/17 00:33:22;;;;;;;12.90;6.80;;;;;;;21.20;60.83;98485.95;108694;1284;23261;-84
2022/08/17 00:35:49;;;;;;;13.10;7.80;;;;;;;21.16;60.91;98484.64;108681;1284;23104;-84
2022/08/17 00:38:21;;;;;;;13.80;7.50;;;;;;;21.10;60.64;98490.58;108739;1283;22556;-84
2022/08/17 00:40:55;;;;;;;22.40;7.20;;;;;;;20.99;60.63;98486.85;108700;1284;22379;-84
2022/08/17 00:43:42;;;;;;;17.10;7.00;;;;;;;20.92;60.87;98488.10;108708;1284;22208;-84
2022/08/17 00:46:21;;;;;;;14.70;7.00;;;;;;;20.88;60.95;98489.27;108582;1283;23058;-84
2022/08/17 00:48:57;;;;;;;14.50;6.70;;;;;;;20.87;61.07;98484.51;108518;1284;22448;-84
2022/08/17 00:51:53;;;;;;;14.20;6.70;;;;;;;20.82;60.91;98484.61;108715;1283;22387;-83
2022/08/17 00:54:29;;;;;;;14.50;6.80;;;;;;;20.80;61.07;98481.79;108701;1284;23118;-84
2022/08/17 00:57:06;;;;;;;10.50;6.70;;;;;;;20.76;60.97;98480.38;108576;1283;22437;-84
2022/08/17 00:59:41;;;;;;;10.70;6.90;;;;;;;20.73;60.96;98485.80;108588;1284;22549;-84
2022/08/17 01:02:11;;;;;;;12.80;7.20;;;;;;;20.72;61.08;98486.29;108574;1284;22461;-84
2022/08/17 01:04:38;;;;;;;14.40;6.50;;;;;;;20.71;61.00;98485.34;108668;1284;23183;-84
2022/08/17 01:07:06;;;;;;;11.60;7.00;;;;;;;20.71;60.99;98488.64;108681;1283;22390;-84
2022/08/17 01:09:34;;;;;;;16.00;6.70;;;;;;;20.63;60.99;98485.86;108719;1284;22273;-84
2022/08/17 01:12:07;;;;;;;10.60;6.60;;;;;;;20.55;61.22;98486.17;108706;1284;22448;-84
2022/08/17 01:14:35;;;;;;;13.20;7.10;;;;;;;20.46;61.22;98485.55;108575;1283;22385;-83
2022/08/17 01:17:05;;;;;;;11.80;6.70;;;;;;;20.43;61.31;98486.16;108546;1284;22408;-84
2022/08/17 01:19:40;;;;;;;11.30;7.00;;;;;;;20.41;61.39;98478.82;108465;1283;22607;-83
2022/08/17 01:22:10;;;;;;;11.10;6.80;;;;;;;20.41;61.55;98476.36;108753;1282;22454;-84
2022/08/17 01:24:41;;;;;;;10.50;7.00;;;;;;;20.46;61.64;98474.23;108729;1283;22503;-84
2022/08/17 01:27:10;;;;;;;10.20;6.50;;;;;;;20.48;61.51;98473.61;108708;1284;22442;-84
2022/08/17 01:29:42;;;;;;;9.70;6.60;;;;;;;20.55;61.63;98475.20;108669;1282;22353;-84
2022/08/17 01:32:14;;;;;;;12.20;6.00;;;;;;;20.61;61.52;98472.52;108711;1284;22413;-84
2022/08/17 01:34:48;;;;;;;11.50;6.90;;;;;;;20.68;61.62;98471.45;108697;1284;22402;-84
2022/08/17 01:37:20;;;;;;;9.70;6.30;;;;;;;20.74;61.66;98473.45;108494;1283;23016;-84
2022/08/17 01:39:58;;;;;;;11.50;6.30;;;;;;;20.81;61.61;98476.09;108686;1284;22331;-84
2022/08/17 01:42:35;;;;;;;12.40;6.80;;;;;;;20.80;61.74;98465.42;108690;1284;22401;-84
2022/08/17 01:45:16;;;;;;;16.70;7.50;;;;;;;20.80;61.62;98467.25;108675;1284;22434;-84
2022/08/17 01:47:46;;;;;;;18.20;8.00;;;;;;;20.65;61.75;98473.70;108705;1283;23429;-84
2022/08/17 01:50:22;;;;;;;12.90;7.40;;;;;;;20.59;61.91;98477.04;108700;1283;22393;-84
2022/08/17 01:53:04;;;;;;;21.00;8.10;;;;;;;20.52;61.98;98470.98;108669;1283;22450;-84
2022/08/17 01:55:37;;;;;;;20.60;7.90;;;;;;;20.47;61.90;98483.27;108495;1284;22447;-84
2022/08/17 01:58:12;;;;;;;29.20;8.10;;;;;;;20.35;61.97;98476.47;108716;1283;22350;-83
2022/08/17 02:00:50;;;;;;;23.20;7.50;;;;;;;20.29;62.05;98485.99;108567;1284;22370;-84
2022/08/17 02:03:23;;;;;;;21.10;8.40;;;;;;;20.23;62.16;98482.80;108520;1283;22398;-84
2022/08/17 02:05:53;;;;;;;22.50;8.40;;;;;;;20.19;62.28;98478.76;108569;1284;22855;-84
2022/08/17 02:08:23;;;;;;;20.30;8.30;;;;;;;20.18;62.45;98484.98;108692;1284;22347;-84
2022/08/17 02:11:00;;;;;;;22.60;9.50;;;;;;;20.12;62.42;98479.69;108692;1284;22591;-84
2022/08/17 02:13:34;;;;;;;18.60;9.00;;;;;;;20.04;62.60;98475.73;108694;1283;23232;-84
2022/08/17 02:16:17;;;;;;;24.50;9.10;;;;;;;20.00;62.62;98476.45;108688;1284;22260;-84
2022/08/17 02:18:48;;;;;;;28.90;8.90;;;;;;;19.93;62.63;98476.59;108657;1283;22989;-85
2022/08/17 02:21:18;;;;;;;25.80;8.60;;;;;;;19.85;62.80;98476.00;108700;1284;23043;-84
2022/08/17 02:23:49;;;;;;;41.90;9.20;;;;;;;19.87;62.85;98478.25;108561;1284;22387;-85
2022/08/17 02:26:19;;;;;;;33.10;9.60;;;;;;;19.88;63.06;98476.21;108727;1282;22391;-84
2022/08/17 02:28:46;;;;;;;30.40;9.50;;;;;;;19.80;62.95;98479.27;108459;1283;23140;-85
2022/08/17 02:31:21;;;;;;;33.40;9.10;;;;;;;19.69;63.08;98474.99;108694;1282;22452;-84
2022/08/17 02:34:04;;;;;;;27.10;9.60;;;;;;;19.58;63.14;98475.21;108694;1283;22562;-85
2022/08/17 02:36:39;;;;;;;23.70;9.80;;;;;;;19.47;63.24;98472.58;108716;1284;22500;-84
2022/08/17 02:39:20;;;;;;;23.30;10.00;;;;;;;19.37;63.34;98474.04;108707;1283;22449;-84
2022/08/17 02:42:07;;;;;;;19.90;8.40;;;;;;;19.33;63.50;98469.88;108687;1284;22339;-84
2022/08/17 02:44:47;;;;;;;21.70;8.70;;;;;;;19.39;63.52;98478.55;108427;1283;22369;-84
2022/08/17 02:47:23;;;;;;;26.10;9.50;;;;;;;19.44;63.59;98477.95;108725;1282;22467;-84
2022/08/17 02:50:06;;;;;;;19.00;8.30;;;;;;;19.49;63.63;98479.74;108599;1284;23223;-84
2022/08/17 02:52:39;;;;;;;19.20;8.80;;;;;;;19.45;63.66;98477.30;108698;1283;23292;-83
2022/08/17 02:55:20;;;;;;;23.20;9.80;;;;;;;19.37;63.67;98472.41;108684;1282;23181;-84
2022/08/17 02:58:04;;;;;;;16.30;8.80;;;;;;;19.35;63.77;98477.40;108576;1283;22391;-84
2022/08/17 03:01:03;;;;;;;14.40;8.10;;;;;;;19.38;63.86;98474.33;108522;1284;22366;-84
2022/08/17 03:04:09;;;;;;;;;;;;;;;;;;;;;
2022/08/17 03:07:20;;;;;;;14.00;8.10;;;;;;;19.51;63.87;98481.41;108724;1284;22557;-85
2022/08/17 03:09:56;;;;;;;20.00;7.60;;;;;;;19.54;63.91;98482.70;108583;1283;22371;-84
2022/08/17 03:12:33;;;;;;;19.30;7.40;;;;;;;19.55;63.92;98482.56;108684;1284;22399;-84
2022/08/17 03:15:43;;;;;;;16.40;7.90;;;;;;;19.56;64.01;98480.63;108684;1284;22448;-84
2022/08/17 03:18:25;;;;;;;16.70;7.70;;;;;;;19.54;64.03;98482.84;108721;1283;22487;-84
2022/08/17 03:21:34;;;;;;;12.80;7.20;;;;;;;19.53;64.02;98482.98;108527;1284;22411;-83
2022/08/17 03:24:34;;;;;;;13.80;7.60;;;;;;;19.56;63.94;98489.70;108752;1283;22399;-84
2022/08/17 03:27:29;;;;;;;;;;;;;;;;;;;;;
2022/08/17 03:30:39;;;;;;;14.90;7.30;;;;;;;19.55;63.98;98486.05;108709;1283;22474;-83
2022/08/17 03:33:22;;;;;;;;;;;;;;;;;;;;;
2022/08/17 03:36:20;;;;;;;;;;;;;;;;;;;;;
2022/08/17 03:39:07;;;;;;;17.80;7.30;;;;;;;19.62;64.13;98490.59;108685;1283;22420;-84
2022/08/17 03:42:04;;;;;;;;;;;;;;;;;;;;;
2022/08/17 03:45:08;;;;;;;13.90;7.70;;;;;;;19.64;64.04;98480.65;108685;1284;22409;-84
2022/08/17 03:56:45;;;;;;;13.60;7.00;;;;;;;19.66;64.02;98479.84;108707;1283;22598;-84
2022/08/17 03:59:19;;;;;;;10.90;6.50;;;;;;;19.72;64.10;98482.09;108494;1283;22414;-84
2022/08/17 04:01:51;;;;;;;11.80;6.30;;;;;;;19.80;64.05;98484.72;108500;1284;22492;-84
2022/08/17 04:04:19;;;;;;;10.70;6.40;;;;;;;19.86;63.93;98484.20;108670;1284;22363;-84
2022/08/17 04:06:49;;;;;;;12.20;6.20;;;;;;;19.89;63.98;98489.20;108580;1284;22579;-85
2022/08/17 04:09:16;;;;;;;11.50;6.80;;;;;;;19.91;64.00;98492.42;108686;1284;22441;-84
2022/08/17 04:11:43;;;;;;;12.40;6.50;;;;;;;19.90;63.80;98494.36;108700;1284;22367;-85
2022/08/17 04:14:13;;;;;;;14.60;7.10;;;;;;;19.88;63.96;98491.69;108697;1284;22226;-84
2022/08/17 04:16:43;;;;;;;12.30;6.40;;;;;;;19.91;64.14;98498.47;108704;1283;22884;-84
2022/08/17 04:19:13;;;;;;;16.70;6.80;;;;;;;19.92;64.15;98495.30;108685;1284;22487;-84
2022/08/17 04:21:43;;;;;;;15.10;7.00;;;;;;;19.98;64.17;98500.41;108602;1284;22572;-84
2022/08/17 04:24:15;;;;;;;13.30;6.80;;;;;;;20.02;64.11;98498.14;108695;1284;22576;-84
2022/08/17 04:26:45;;;;;;;14.80;7.10;;;;;;;20.05;64.02;98501.46;108684;1284;23096;-85
2022/08/17 04:29:12;;;;;;;17.20;7.30;;;;;;;20.00;64.13;98507.73;108663;1284;23083;-84
2022/08/17 04:31:42;;;;;;;19.30;7.70;;;;;;;20.00;64.26;98509.56;108687;1284;22472;-84
2022/08/17 04:34:12;;;;;;;29.50;8.50;;;;;;;20.05;64.39;98505.42;108699;1283;22397;-84
2022/08/17 04:36:44;;;;;;;23.20;7.60;;;;;;;20.10;64.47;98508.52;108678;1284;22476;-84
2022/08/17 04:39:12;;;;;;;24.00;7.10;;;;;;;20.14;64.30;98508.61;108754;1283;23137;-84
2022/08/17 04:44:24;;;;;;;27.00;8.40;;;;;;;20.32;64.49;98518.36;108731;1282;22497;-84
2022/08/17 04:46:54;;;;;;;23.90;7.90;;;;;;;20.39;64.58;98520.92;108466;1284;22425;-84
2022/08/17 04:49:21;;;;;;;22.20;7.70;;;;;;;20.43;64.61;98510.49;108602;1284;22204;-82
2022/08/17 04:51:48;;;;;;;22.30;8.20;;;;;;;20.52;64.72;98517.18;108689;1284;23226;-84
2022/08/17 04:54:20;;;;;;;18.40;9.00;;;;;;;20.59;64.52;98514.73;108736;1282;23023;-83
2022/08/17 04:56:53;;;;;;;17.60;8.60;;;;;;;20.65;64.51;98515.23;108666;1283;22523;-84
2022/08/17 04:59:21;;;;;;;13.90;7.50;;;;;;;20.62;64.48;98514.40;108668;1284;22192;-84
2022/08/17 05:01:50;;;;;;;16.90;7.80;;;;;;;20.78;64.63;98518.76;108683;1284;23003;-84
2022/08/17 05:04:28;;;;;;;17.00;7.90;;;;;;;20.90;64.53;98514.90;108670;1284;22385;-83
2022/08/17 05:07:00;;;;;;;18.70;8.40;;;;;;;21.04;64.65;98516.95;108707;1284;23147;-84
2022/08/17 05:09:30;;;;;;;17.10;7.90;;;;;;;21.16;64.60;98509.61;108719;1283;23185;-84
2022/08/17 05:12:06;;;;;;;17.20;7.40;;;;;;;21.27;64.18;98515.33;108697;1283;22361;-84
2022/08/17 05:14:40;;;;;;;22.00;7.40;;;;;;;21.34;64.47;98519.79;108704;1283;22402;-84
2022/08/17 05:17:09;;;;;;;22.40;7.80;;;;;;;21.46;64.27;98521.17;108434;1283;22403;-84
2022/08/17 05:19:40;;;;;;;32.20;8.20;;;;;;;21.57;64.47;98515.40;108677;1283;22446;-84
2022/08/17 05:22:17;;;;;;;25.50;8.60;;;;;;;21.74;64.48;98519.52;108685;1284;22414;-83
2022/08/17 05:24:53;;;;;;;21.80;8.00;;;;;;;21.89;64.46;98517.99;108697;1282;22153;-84
2022/08/17 05:27:23;;;;;;;32.50;9.40;;;;;;;22.04;64.45;98518.54;108714;1284;22418;-84
2022/08/17 05:29:52;;;;;;;35.00;9.40;;;;;;;22.12;64.29;98522.39;108712;1283;22495;-85
2022/08/17 05:32:25;;;;;;;38.60;10.70;;;;;;;22.19;64.32;98525.83;108707;1284;22430;-84
2022/08/17 05:35:01;;;;;;;37.60;10.10;;;;;;;22.31;64.27;98527.09;108756;1282;22582;-84
2022/08/17 05:37:33;;;;;;;48.10;12.80;;;;;;;22.48;64.34;98526.99;108620;1284;22422;-83
2022/08/17 05:40:03;;;;;;;52.80;12.80;;;;;;;22.62;64.38;98522.20;108701;1284;22536;-84
2022/08/17 05:42:33;;;;;;;40.10;12.30;;;;;;;22.79;64.35;98518.09;108498;1283;22401;-84
2022/08/17 05:45:06;;;;;;;49.10;13.30;;;;;;;22.96;64.36;98520.84;108469;1284;22244;-84
2022/08/17 05:47:42;;;;;;;46.30;12.60;;;;;;;23.11;64.33;98524.22;108742;1283;22181;-84
2022/08/17 05:50:18;;;;;;;44.00;11.90;;;;;;;23.31;64.37;98533.81;108652;1284;22465;-83
2022/08/17 05:53:21;;;;;;;39.10;11.80;;;;;;;23.47;64.34;98526.19;108652;1284;22499;-85
2022/08/17 05:56:06;;;;;;;43.00;11.60;;;;;;;23.68;64.24;98529.65;108653;1284;22157;-84
2022/08/17 05:58:55;;;;;;;39.80;11.20;;;;;;;23.88;63.99;98536.51;108664;1284;23056;-84
2022/08/17 06:01:57;;;;;;;31.70;10.80;;;;;;;24.08;63.97;98534.92;108605;1284;22476;-85
2022/08/17 06:04:40;;;;;;;30.90;11.10;;;;;;;24.27;63.89;98531.02;108722;1282;22318;-84
2022/08/17 06:07:28;;;;;;;26.80;9.10;;;;;;;24.44;63.74;98531.33;108643;1284;22374;-84
2022/08/17 06:10:04;;;;;;;24.00;8.80;;;;;;;24.61;63.74;98532.09;108642;1284;22464;-84
2022/08/17 06:13:27;;;;;;;22.00;7.80;;;;;;;24.76;63.84;98529.74;108708;1284;22356;-84
2022/08/17 06:16:12;;;;;;;17.50;7.20;;;;;;;24.96;63.56;98526.45;108378;1287;23241;-84
2022/08/17 06:18:57;;;;;;;16.80;6.90;;;;;;;25.11;63.44;98526.09;108359;1287;22413;-84
2022/08/17 06:21:37;;;;;;;18.10;7.10;;;;;;;25.24;63.40;98527.16;108266;1287;22255;-84
2022/08/17 06:24:29;;;;;;;21.70;6.90;;;;;;;25.41;63.28;98531.79;108315;1287;22455;-84
2022/08/17 06:27:05;;;;;;;19.80;6.30;;;;;;;25.52;63.28;98533.66;108310;1287;22573;-85
2022/08/17 06:29:40;;;;;;;17.00;6.40;;;;;;;25.68;63.13;98539.16;108261;1287;22474;-84
2022/08/17 06:32:13;;;;;;;15.30;6.30;;;;;;;25.78;62.95;98541.45;108092;1287;22948;-84
2022/08/17 06:34:46;;;;;;;21.90;6.20;;;;;;;25.95;62.90;98551.54;108339;1287;22445;-85
2022/08/17 06:37:21;;;;;;;21.20;6.40;;;;;;;26.08;62.78;98551.33;108146;1287;22418;-85
2022/08/17 06:39:58;;;;;;;24.80;6.80;;;;;;;26.19;62.73;98549.88;108357;1287;22420;-84
2022/08/17 06:42:51;;;;;;;18.50;6.20;;;;;;;26.33;62.54;98548.87;108170;1287;22261;-84
2022/08/17 06:45:44;;;;;;;17.90;6.30;;;;;;;26.53;62.48;98553.45;108121;1287;22430;-85
2022/08/17 06:48:32;;;;;;;14.80;5.90;;;;;;;26.72;62.38;98558.94;108625;1284;22989;-84
2022/08/17 06:51:50;;;;;;;16.70;5.80;;;;;;;26.89;62.09;98562.23;108743;1284;22489;-85
2022/08/17 06:54:26;;;;;;;12.10;4.40;;;;;;;27.00;61.34;98563.31;108765;1283;22445;-85
2022/08/17 06:57:14;;;;;;;12.90;4.80;;;;;;;27.01;61.00;98562.97;108638;1284;22453;-87
2022/08/17 07:00:19;;;;;;;10.00;4.30;;;;;;;27.05;60.70;98569.42;108645;1284;22610;-86
2022/08/17 07:03:14;;;;;;;12.20;4.40;;;;;;;27.11;60.33;98569.04;108686;1284;23062;-85
2022/08/17 07:06:35;;;;;;;15.80;4.70;;;;;;;27.05;59.78;98568.71;104747;1284;5259754;-85
2022/08/17 07:09:49;;;;;;;;;;;;;;;;;;;;;
2022/08/17 07:12:38;;;;;;;15.00;4.60;;;;;;;26.96;59.89;98563.21;108365;1287;22479;-86
2022/08/17 07:16:24;;;;;;;12.60;4.70;;;;;;;27.16;59.74;98573.91;108078;1288;22301;-87
2022/08/17 07:18:49;;;;;;;13.70;4.70;;;;;;;27.28;59.44;98570.60;108302;1287;23266;-86
2022/08/17 07:22:29;;;;;;;;;;;;;;;;;;;;;
2022/08/17 07:25:07;;;;;;;10.60;3.80;;;;;;;27.42;59.04;98569.67;107510;1293;23271;-85
2022/08/17 07:28:29;;;;;;;11.00;4.10;;;;;;;27.41;58.71;98570.19;107577;1293;22339;-86
2022/08/17 07:31:11;;;;;;;9.00;3.90;;;;;;;27.50;59.08;98572.85;107507;1294;22547;-86
2022/08/17 07:34:06;;;;;;;8.70;4.10;;;;;;;27.59;58.93;98566.61;107496;1293;22438;-88
2022/08/17 07:36:38;;;;;;;8.80;4.00;;;;;;;27.85;58.88;98569.86;107345;1296;22610;-86
2022/08/17 07:39:33;;;;;;;11.60;4.10;;;;;;;28.00;58.38;98562.67;107376;1294;23381;-86
2022/08/17 07:42:19;;;;;;;11.30;4.30;;;;;;;28.01;58.13;98559.14;107461;1294;22546;-86
2022/08/17 07:48:17;;;;;;;9.40;3.90;;;;;;;28.12;58.44;98563.41;107229;1296;23251;-88
2022/08/17 07:48:34;;;;;;;7.00;3.30;;;;;;;28.25;58.02;98571.27;107523;1293;22505;-90
2022/08/17 07:51:49;;;;;;;8.80;4.00;;;;;;;28.38;58.25;98566.47;107893;1290;22534;-87
2022/08/17 07:54:40;;;;;;;;;;;;;;;;;;;;;
2022/08/17 07:57:21;;;;;;;12.60;4.60;;;;;;;28.63;57.41;98571.13;107331;1296;22654;-87
2022/08/17 08:00:19;;;;;;;;;;;;;;;;;;;;;
2022/08/17 08:03:30;;;;;;;9.40;4.20;;;;;;;28.79;57.39;98574.54;108215;1287;22439;-87
2022/08/17 08:06:45;;;;;;;9.30;4.20;;;;;;;28.99;57.55;98570.44;108221;1288;22876;-86
2022/08/17 08:09:47;;;;;;;16.30;4.40;;;;;;;29.11;57.09;98571.80;108366;1287;22441;-88
2022/08/17 08:12:45;;;;;;;;;;;;;;;;;;;;;
2022/08/17 08:15:47;;;;;;;9.30;4.00;;;;;;;29.43;56.97;98576.77;108022;1288;22392;-86
2022/08/17 08:18:47;;;;;;;11.20;4.20;;;;;;;29.37;56.69;98579.83;108247;1287;23165;-87
2022/08/17 08:22:19;;;;;;;9.90;4.20;;;;;;;29.41;56.66;98578.05;108227;1288;23264;-88
2022/08/17 08:24:58;;;;;;;10.40;4.30;;;;;;;29.60;56.47;98583.41;108231;1287;23283;-89
2022/08/17 08:28:19;;;;;;;8.90;4.20;;;;;;;29.78;56.70;98580.90;108223;1287;22588;-88
2022/08/17 08:31:07;;;;;;;16.50;4.60;;;;;;;30.05;56.31;98579.95;108288;1283;23238;-89
2022/08/17 08:34:09;;;;;;;14.70;5.00;;;;;;;30.09;55.63;98573.61;108759;1283;23075;-91
2022/08/17 08:36:57;;;;;;;11.80;4.70;;;;;;;30.10;55.28;98575.46;108597;1284;22499;-89
2022/08/17 08:40:05;;;;;;;12.30;4.30;;;;;;;30.08;55.23;98577.89;108673;1283;22447;-88
2022/08/17 08:42:54;;;;;;;13.00;4.50;;;;;;;30.04;54.99;98573.77;108635;1284;22396;-89
2022/08/17 08:45:38;;;;;;;9.50;3.90;;;;;;;30.13;55.26;98571.89;108613;1283;22468;-88
2022/08/17 08:48:34;;;;;;;10.80;4.60;;;;;;;30.29;55.35;98573.41;108668;1284;22596;-88
2022/08/17 08:51:45;;;;;;;15.00;4.80;;;;;;;30.53;55.36;98579.71;108490;1284;22522;-88
2022/08/17 08:54:33;;;;;;;12.20;4.60;;;;;;;30.79;55.41;98573.25;108256;1288;22454;-85
2022/08/17 08:57:24;;;;;;;12.90;4.40;;;;;;;31.05;54.34;98582.32;108215;1288;23106;-86
2022/08/17 09:00:25;;;;;;;16.00;4.80;;;;;;;30.98;54.44;98585.59;108197;1288;23092;-86
2022/08/17 09:03:20;;;;;;;18.30;5.30;;;;;;;31.14;54.10;98587.14;107930;1288;22393;-86
2022/08/17 09:06:18;;;;;;;14.20;5.60;;;;;;;31.11;53.81;98589.52;108186;1288;22461;-85
2022/08/17 09:09:16;;;;;;;23.70;10.30;;;;;;;30.90;53.04;98584.77;108036;1288;22480;-86
2022/08/17 09:12:20;;;;;;;19.00;8.90;;;;;;;30.91;53.85;98583.02;108215;1288;22453;-86
2022/08/17 09:14:55;;;;;;;13.10;6.70;;;;;;;31.15;53.92;98582.13;108190;1288;23313;-86
2022/08/17 09:18:05;;;;;;;14.20;5.50;;;;;;;31.33;53.46;98581.06;108036;1288;22536;-85
2022/08/17 09:20:42;;;;;;;16.10;5.60;;;;;;;31.37;53.00;98574.78;108118;1288;23220;-87
2022/08/17 09:23:34;;;;;;;12.70;4.50;;;;;;;31.29;52.97;98578.26;107880;1288;23132;-87
2022/08/17 09:26:10;;;;;;;16.30;5.60;;;;;;;31.51;53.16;98583.13;107950;1288;23197;-88
2022/08/17 09:28:48;;;;;;;17.90;5.40;;;;;;;31.66;52.60;98580.26;108219;1288;22517;-86
2022/08/17 09:31:41;;;;;;;16.50;5.60;;;;;;;31.74;52.61;98575.48;108172;1283;23148;-87
2022/08/17 09:34:21;;;;;;;16.20;5.00;;;;;;;31.81;52.47;98581.59;108539;1284;22525;-87
2022/08/17 09:37:28;;;;;;;10.50;4.60;;;;;;;32.01;52.76;98575.35;108525;1283;22512;-87
2022/08/17 09:40:17;;;;;;;11.40;4.50;;;;;;;32.36;52.61;98571.60;108617;1283;22535;-88
2022/08/17 09:43:15;;;;;;;12.20;4.40;;;;;;;32.58;52.04;98572.34;108604;1284;22269;-89
2022/08/17 09:46:00;;;;;;;8.70;4.40;;;;;;;32.81;51.99;98576.42;108560;1284;22468;-90
2022/08/17 09:48:39;;;;;;;9.60;5.00;;;;;;;32.96;51.67;98572.23;108601;1284;22492;-87
2022/08/17 09:51:24;;;;;;;10.00;4.70;;;;;;;33.13;51.84;98572.45;108782;1283;22470;-91
2022/08/17 09:54:01;;;;;;;11.40;4.50;;;;;;;33.27;51.45;98569.14;108530;1284;22667;-88
2022/08/17 09:56:56;;;;;;;8.40;4.50;;;;;;;33.39;51.38;98571.70;108608;1284;22442;-87
2022/08/17 10:00:21;;;;;;;10.20;5.00;;;;;;;33.52;50.55;98574.08;108640;1284;23174;-87
2022/08/17 10:03:01;;;;;;;9.90;4.70;;;;;;;33.64;50.57;98579.61;108057;1290;22542;-86
2022/08/17 10:05:45;;;;;;;8.10;4.60;;;;;;;33.62;49.49;98575.83;108088;1290;22870;-85
2022/08/17 10:08:38;;;;;;;11.20;4.40;;;;;;;33.27;49.68;98579.31;108186;1288;22171;-89
2022/08/17 10:14:55;;;;;;;;;;;;;;;;;;;;;
2022/08/17 10:17:49;;;;;;;9.50;4.00;;;;;;;33.23;49.75;98577.25;108118;1288;22497;-89
2022/08/17 10:20:32;;;;;;;10.60;4.20;;;;;;;33.40;49.30;98579.39;108078;1288;23005;-90
2022/08/17 10:26:20;;;;;;;9.30;4.40;;;;;;;33.68;49.07;98570.92;108228;1288;23440;-85
2022/08/17 10:29:42;;;;;;;12.70;4.30;;;;;;;33.71;48.65;98568.61;108085;1288;22956;-86
2022/08/17 10:32:45;;;;;;;7.60;4.20;;;;;;;33.76;48.54;98573.43;108234;1288;22480;-86
2022/08/17 10:35:47;;;;;;;9.10;4.00;;;;;;;33.84;48.55;98565.36;107804;1287;22404;-86
2022/08/17 10:38:44;;;;;;;8.50;3.90;;;;;;;34.02;48.42;98568.92;108292;1284;23090;-87
2022/08/17 10:41:54;;;;;;;10.60;4.20;;;;;;;34.15;48.69;98567.55;108645;1284;23270;-86
2022/08/17 10:45:09;;;;;;;8.60;4.30;;;;;;;34.18;47.78;98564.52;108777;1282;22375;-85
2022/08/17 10:48:03;;;;;;;11.40;4.50;;;;;;;34.09;47.91;98568.37;108038;1290;22924;-87
2022/08/17 10:51:12;;;;;;;9.90;5.00;;;;;;;34.10;47.94;98574.96;107993;1290;22945;-87
2022/08/17 10:53:52;;;;;;;9.20;4.30;;;;;;;34.19;47.93;98568.50;108069;1290;22298;-89
2022/08/17 10:56:49;;;;;;;8.50;4.20;;;;;;;34.29;47.54;98566.52;108033;1290;22237;-85
2022/08/17 11:00:00;;;;;;;8.50;4.10;;;;;;;34.41;47.31;98565.75;107911;1290;22531;-90
2022/08/17 11:03:16;;;;;;;11.50;4.20;;;;;;;34.46;47.09;98558.33;108072;1290;23582;-92
2022/08/17 11:06:21;;;;;;;9.40;4.40;;;;;;;34.29;46.59;98556.09;108020;1289;22397;-85
2022/08/17 11:10:00;;;;;;;;;;;;;;;;;;;;;
2022/08/17 11:18:10;;;;;;;;;;;;;;;;;;;;;
2022/08/17 11:21:48;;;;;;;;;;;;;;;;;;;;;
2022/08/17 11:25:14;;;;;;;;;;;;;;;;;;;;;
2022/08/17 11:28:26;;;;;;;9.40;4.20;;;;;;;34.17;45.05;98553.38;107713;1290;22357;-89
2022/08/17 11:32:13;;;;;;;;;;;;;;;;;;;;;
2022/08/17 11:39:59;;;;;;;7.50;4.10;;;;;;;34.23;45.40;98552.58;107320;1295;22540;-87
2022/08/17 11:43:28;;;;;;;;;;;;;;;;;;;;;
2022/08/17 11:51:31;;;;;;;9.00;4.20;;;;;;;34.14;44.77;98542.19;107128;1300;22890;-88
2022/08/17 11:58:20;;;;;;;7.60;3.90;;;;;;;34.43;44.05;98542.54;106942;1302;22457;-89
2022/08/17 12:01:25;;;;;;;7.50;3.90;;;;;;;34.51;44.28;98545.50;107086;1301;22419;-89
2022/08/17 12:04:58;;;;;;;;;;;;;;;;;;;;;
2022/08/17 12:08:06;;;;;;;7.40;3.60;;;;;;;34.62;44.19;98546.45;103812;1309;545735;-92
2022/08/17 12:11:12;;;;;;;7.80;4.10;;;;;;;34.59;43.91;98547.95;105599;1283;22629;-91
2022/08/17 12:13:55;;;;;;;7.30;3.70;;;;;;;34.46;43.92;98546.02;105411;1286;22704;-89
2022/08/17 12:16:29;;;;;;;10.00;4.00;;;;;;;34.46;43.68;98542.80;105594;1286;22578;-90
2022/08/17 12:19:02;;;;;;;6.40;3.80;;;;;;;34.43;43.53;98545.52;105403;1286;25254;-89
2022/08/17 12:21:48;;;;;;;7.70;4.10;;;;;;;34.40;43.60;98546.32;104592;1283;1384305;-90
2022/08/17 12:24:28;;;;;;;8.20;3.80;;;;;;;34.37;43.28;98540.68;105704;1283;22545;-90
2022/08/17 12:27:00;;;;;;;7.80;4.20;;;;;;;34.30;43.34;98539.85;105719;1283;22555;-89
2022/08/17 12:29:33;;;;;;;6.80;4.10;;;;;;;34.31;43.36;98540.35;105763;1284;22575;-88
2022/08/17 12:32:08;;;;;;;6.60;4.00;;;;;;;34.35;43.15;98542.16;105633;1283;24269;-92
2022/08/17 12:34:40;;;;;;;7.00;3.50;;;;;;;34.38;43.22;98544.77;105646;1284;23975;-88
2022/08/17 12:41:33;;;;;;;9.30;4.30;;;;;;;34.33;43.10;98534.73;105061;1289;22604;-90
2022/08/17 12:48:37;;;;;;;;;;;;;;;;;;;;;
2022/08/17 12:52:16;;;;;;;6.30;3.70;;;;;;;34.34;42.33;98521.94;104204;1300;22594;-89
2022/08/17 12:54:58;;;;;;;8.70;3.70;;;;;;;34.21;42.33;98513.52;104192;1298;22584;-88
2022/08/17 12:57:33;;;;;;;8.50;3.90;;;;;;;34.04;41.85;98513.08;104259;1298;25304;-89
2022/08/17 13:00:32;;;;;;;7.60;3.90;;;;;;;33.94;42.25;98515.61;103938;1298;22720;-88
2022/08/17 13:03:35;;;;;;;;;;;;;;;;;;;;;
2022/08/17 13:06:26;;;;;;;6.50;3.30;;;;;;;33.94;41.88;98516.11;104425;1299;22591;-90
2022/08/17 13:09:09;;;;;;;9.30;4.00;;;;;;;33.90;41.92;98512.80;104150;1298;25518;-88
2022/08/17 13:11:47;;;;;;;7.70;3.90;;;;;;;33.85;41.70;98515.80;104027;1298;22709;-89
2022/08/17 13:14:18;;;;;;;9.00;4.20;;;;;;;33.85;42.11;98516.08;104003;1298;22652;-89
2022/08/17 13:16:55;;;;;;;8.10;3.70;;;;;;;33.86;41.90;98509.05;104200;1298;22562;-89
2022/08/17 13:19:29;;;;;;;7.80;4.00;;;;;;;33.80;41.58;98502.39;104314;1294;22739;-90
2022/08/17 13:22:05;;;;;;;8.90;4.10;;;;;;;33.73;41.60;98505.05;105149;1295;25384;-90
2022/08/17 13:24:37;;;;;;;8.90;4.00;;;;;;;33.72;41.56;98509.68;104455;1286;26482;-90
2022/08/17 13:27:12;;;;;;;7.20;4.00;;;;;;;33.74;41.57;98508.25;104850;1286;24267;-86
2022/08/17 13:29:54;;;;;;;7.10;4.00;;;;;;;33.71;41.35;98506.86;106202;1277;22569;-89
2022/08/17 13:32:40;;;;;;;6.80;3.80;;;;;;;33.69;41.62;98509.61;106038;1277;22583;-89
2022/08/17 13:35:43;;;;;;;7.70;3.70;;;;;;;33.78;41.55;98515.73;106116;1277;22553;-88
2022/08/17 13:38:48;;;;;;;8.00;3.80;;;;;;;33.71;41.07;98505.30;106044;1277;22634;-91
2022/08/17 13:41:36;;;;;;;7.70;3.50;;;;;;;33.71;41.32;98507.95;106123;1277;22575;-89
2022/08/17 13:44:46;;;;;;;9.60;3.80;;;;;;;33.77;41.23;98506.70;106441;1271;26582;-90
2022/08/17 13:47:23;;;;;;;7.50;3.50;;;;;;;33.85;41.25;98505.33;105843;1277;24263;-89
2022/08/17 13:49:54;;;;;;;7.60;4.40;;;;;;;33.83;41.01;98498.28;105919;1277;22541;-89
2022/08/17 13:52:42;;;;;;;7.60;4.00;;;;;;;33.79;40.97;98499.39;105892;1277;23030;-88
2022/08/17 13:55:20;;;;;;;7.20;3.60;;;;;;;33.71;40.84;98494.45;105947;1277;22707;-90
2022/08/17 13:57:53;;;;;;;6.50;3.60;;;;;;;33.63;40.86;98492.11;105988;1277;22480;-89
2022/08/17 14:00:35;;;;;;;6.70;3.20;;;;;;;33.61;40.73;98495.38;105865;1277;25221;-87